createdAt,value
2018-02-18T00:01:45.937Z,102150.80
2018-02-18T00:04:17.155Z,102164.39
2018-02-18T00:06:47.739Z,102166.03
2018-02-18T00:09:19.207Z,102168.08
2018-02-18T00:11:55.541Z,102171.64
2018-02-18T00:14:32.658Z,102176.78
2018-02-18T00:17:07.926Z,102167.64
2018-02-18T00:19:40.023Z,102170.78
2018-02-18T00:22:11.044Z,102176.34
2018-02-18T00:24:41.570Z,102172.55
2018-02-18T00:27:11.991Z,102175.31
2018-02-18T00:29:44.243Z,102181.29
2018-02-18T00:32:15.054Z,102185.86
2018-02-18T00:34:45.618Z,102144.89
2018-02-18T00:37:17.297Z,102188.95
2018-02-18T00:39:47.840Z,102185.23
2018-02-18T00:42:20.885Z,102185.73
2018-02-18T00:44:53.548Z,102181.90
2018-02-18T00:47:25.991Z,102184.87
2018-02-18T00:49:59.203Z,102190.09
2018-02-18T00:52:29.836Z,102184.30
2018-02-18T00:55:04.267Z,102183.20
2018-02-18T00:57:35.316Z,102179.74
2018-02-18T01:00:08.094Z,102190.72
2018-02-18T01:02:38.675Z,102198.39
2018-02-18T01:05:09.371Z,102195.67
2018-02-18T01:07:39.888Z,102196.31
2018-02-18T01:10:11.888Z,102202.52
2018-02-18T01:12:43.320Z,102208.75
2018-02-18T01:15:16.120Z,102199.05
2018-02-18T01:17:49.276Z,102207.21
2018-02-18T01:20:33.037Z,102207.38
2018-02-18T01:26:05.086Z,102209.02
2018-02-18T01:28:37.075Z,102201.31
2018-02-18T01:31:07.886Z,102208.24
2018-02-18T01:33:40.485Z,102206.20
2018-02-18T01:36:11.631Z,102216.64
2018-02-18T01:38:43.870Z,102220.47
2018-02-18T01:41:15.289Z,102216.48
2018-02-18T01:43:46.712Z,102222.96
2018-02-18T01:46:21.540Z,102216.13
2018-02-18T01:48:52.455Z,102212.95
2018-02-18T01:51:23.452Z,102220.59
2018-02-18T01:53:53.954Z,102217.66
2018-02-18T01:56:26.806Z,102212.74
2018-02-18T01:58:57.953Z,102215.77
2018-02-18T02:01:29.392Z,102218.17
2018-02-18T02:04:00.255Z,102213.27
2018-02-18T02:06:30.811Z,102213.16
2018-02-18T02:09:02.659Z,102212.87
2018-02-18T02:11:32.975Z,102216.60
2018-02-18T02:14:04.640Z,102224.41
2018-02-18T02:16:35.968Z,102209.92
2018-02-18T02:19:07.083Z,102215.52
2018-02-18T02:21:38.236Z,102212.67
2018-02-18T02:24:09.997Z,102207.09
2018-02-18T02:26:41.282Z,102211.71
2018-02-18T02:29:14.929Z,102213.93
2018-02-18T02:31:46.466Z,102206.20
2018-02-18T02:34:16.616Z,102213.05
2018-02-18T02:36:47.209Z,102210.61
2018-02-18T02:39:17.689Z,102203.91
2018-02-18T02:41:51.316Z,102206.55
2018-02-18T02:44:25.774Z,102215.18
2018-02-18T02:46:59.286Z,102208.04
2018-02-18T02:49:33.350Z,102213.13
2018-02-18T02:52:04.125Z,102218.83
2018-02-18T02:54:34.686Z,102205.39
2018-02-18T02:57:08.172Z,102207.73
2018-02-18T02:59:41.284Z,102207.64
2018-02-18T03:02:12.237Z,102200.08
2018-02-18T03:04:42.825Z,102200.26
2018-02-18T03:07:13.200Z,102192.22
2018-02-18T03:09:43.856Z,102202.66
2018-02-18T03:12:18.290Z,102197.66
2018-02-18T03:14:55.047Z,102181.88
2018-02-18T03:17:30.147Z,102170.57
2018-02-18T03:20:01.732Z,102175.77
2018-02-18T03:22:32.597Z,102179.09
2018-02-18T03:25:03.675Z,102177.03
2018-02-18T03:27:34.100Z,102178.50
2018-02-18T03:30:08.573Z,102177.27
2018-02-18T03:32:39.420Z,102180.82
2018-02-18T03:35:09.937Z,102180.18
2018-02-18T03:37:41.427Z,102176.58
2018-02-18T03:40:11.950Z,102176.80
2018-02-18T03:42:45.192Z,102177.88
2018-02-18T03:45:18.160Z,102181.30
2018-02-18T03:47:48.373Z,102180.80
2018-02-18T03:50:19.833Z,102182.47
2018-02-18T03:52:50.250Z,102180.16
2018-02-18T03:55:20.519Z,102181.14
2018-02-18T03:57:52.216Z,102181.19
2018-02-18T04:00:22.844Z,102180.52
2018-02-18T04:02:53.985Z,102178.62
2018-02-18T04:05:24.844Z,102181.59
2018-02-18T04:07:56.411Z,102178.28
2018-02-18T04:10:27.116Z,102181.48
2018-02-18T04:12:57.514Z,102182.49
2018-02-18T04:15:27.753Z,102191.67
2018-02-18T04:17:58.566Z,102190.84
2018-02-18T04:20:28.908Z,102196.25
2018-02-18T04:23:00.417Z,102197.84
2018-02-18T04:25:34.576Z,102200.64
2018-02-18T04:28:05.134Z,102201.64
2018-02-18T04:30:36.964Z,102204.77
2018-02-18T04:33:07.751Z,102222.61
2018-02-18T04:35:38.360Z,102209.03
2018-02-18T04:38:16.727Z,102211.48
2018-02-18T04:40:46.983Z,102217.23
2018-02-18T04:43:17.773Z,102216.42
2018-02-18T04:45:48.269Z,102216.28
2018-02-18T04:48:18.407Z,102214.27
2018-02-18T04:50:49.152Z,102214.21
2018-02-18T04:53:19.579Z,102205.77
2018-02-18T04:55:50.239Z,102210.07
2018-02-18T04:58:22.360Z,102217.48
2018-02-18T05:00:53.136Z,102213.66
2018-02-18T05:03:23.565Z,102202.19
2018-02-18T05:05:54.349Z,102212.74
2018-02-18T05:08:36.043Z,102200.65
2018-02-18T05:11:06.922Z,102206.34
2018-02-18T05:13:38.257Z,102213.23
2018-02-18T05:16:09.027Z,102225.45
2018-02-18T05:18:40.268Z,102215.71
2018-02-18T05:21:10.608Z,102214.91
2018-02-18T05:23:40.880Z,102215.14
2018-02-18T05:26:11.811Z,102220.59
2018-02-18T05:28:42.570Z,102215.50
2018-02-18T05:31:14.270Z,102216.83
2018-02-18T05:33:47.050Z,102225.03
2018-02-18T05:36:17.338Z,102229.36
2018-02-18T05:38:48.024Z,102227.23
2018-02-18T05:41:18.921Z,102220.56
2018-02-18T05:43:49.163Z,102226.14
2018-02-18T05:46:19.742Z,102225.91
2018-02-18T05:48:50.104Z,102226.06
2018-02-18T05:51:20.420Z,102226.22
2018-02-18T05:53:50.850Z,102222.28
2018-02-18T05:56:20.951Z,102215.81
2018-02-18T05:58:52.802Z,102216.84
2018-02-18T06:01:23.396Z,102213.13
2018-02-18T06:03:53.772Z,102216.45
2018-02-18T06:06:24.496Z,102220.55
2018-02-18T06:08:55.166Z,102226.75
2018-02-18T06:11:25.543Z,102223.42
2018-02-18T06:13:56.510Z,102223.33
2018-02-18T06:16:27.277Z,102218.02
2018-02-18T06:18:58.054Z,102207.98
2018-02-18T06:21:28.652Z,102213.23
2018-02-18T06:23:59.192Z,102216.40
2018-02-18T06:26:30.012Z,102217.65
2018-02-18T06:29:00.310Z,102216.44
2018-02-18T06:31:31.789Z,102216.39
2018-02-18T06:34:02.939Z,102219.91
2018-02-18T06:36:33.966Z,102228.20
2018-02-18T06:39:05.068Z,102225.80
2018-02-18T06:41:36.484Z,102219.80
2018-02-18T06:44:07.503Z,102224.83
2018-02-18T06:46:38.515Z,102235.28
2018-02-18T06:49:10.085Z,102235.67
2018-02-18T06:51:41.884Z,102237.95
2018-02-18T06:54:14.734Z,102250.27
2018-02-18T06:56:47.719Z,102241.59
2018-02-18T06:59:18.853Z,102239.70
2018-02-18T07:01:53.256Z,102243.20
2018-02-18T07:04:25.961Z,102246.58
2018-02-18T07:06:58.189Z,102246.84
2018-02-18T07:09:30.398Z,102243.75
2018-02-18T07:14:36.753Z,102242.44
2018-02-18T07:17:08.710Z,102232.92
2018-02-18T07:19:44.849Z,102246.39
2018-02-18T07:22:16.713Z,102244.58
2018-02-18T07:24:47.473Z,102251.63
2018-02-18T07:27:18.248Z,102252.86
2018-02-18T07:29:52.515Z,102248.82
2018-02-18T07:32:24.829Z,102248.65
2018-02-18T07:34:55.788Z,102246.78
2018-02-18T07:37:27.569Z,102245.59
2018-02-18T07:39:58.789Z,102250.67
2018-02-18T07:42:29.933Z,102247.11
2018-02-18T07:45:06.107Z,102247.22
2018-02-18T07:47:37.758Z,102238.13
2018-02-18T07:50:09.623Z,102248.31
2018-02-18T07:52:41.631Z,102232.10
2018-02-18T07:55:12.026Z,102227.33
2018-02-18T07:57:48.315Z,102240.61
2018-02-18T08:00:18.790Z,102229.62
2018-02-18T08:02:49.236Z,102225.80
2018-02-18T08:05:20.135Z,102220.14
2018-02-18T08:07:50.609Z,102231.99
2018-02-18T08:10:21.420Z,102232.82
2018-02-18T08:12:52.476Z,102236.23
2018-02-18T08:15:23.230Z,102238.73
2018-02-18T08:17:53.976Z,102242.59
2018-02-18T08:20:24.980Z,102240.95
2018-02-18T08:22:56.013Z,102236.70
2018-02-18T08:25:27.900Z,102237.66
2018-02-18T08:27:59.059Z,102232.88
2018-02-18T08:33:21.661Z,102243.11
2018-02-18T08:35:52.988Z,102237.37
2018-02-18T08:38:23.348Z,102237.45
2018-02-18T08:40:53.760Z,102237.19
2018-02-18T08:43:24.529Z,102237.09
2018-02-18T08:45:57.732Z,102235.23
2018-02-18T08:48:29.737Z,102240.73
2018-02-18T08:51:06.249Z,102231.31
2018-02-18T08:53:38.432Z,102240.56
2018-02-18T08:56:10.491Z,102246.61
2018-02-18T08:58:42.767Z,102250.66
2018-02-18T09:01:14.571Z,102255.88
2018-02-18T09:03:46.773Z,102244.42
2018-02-18T09:06:18.922Z,102238.41
2018-02-18T09:08:49.594Z,102227.64
2018-02-18T09:11:20.865Z,102240.81
2018-02-18T09:13:53.213Z,102238.35
2018-02-18T09:16:24.089Z,102244.56
2018-02-18T09:18:54.497Z,102235.85
2018-02-18T09:21:25.013Z,102250.35
2018-02-18T09:23:55.488Z,102254.48
2018-02-18T09:26:26.555Z,102252.98
2018-02-18T09:28:58.871Z,102247.41
2018-02-18T09:31:30.027Z,102248.35
2018-02-18T09:34:00.655Z,102249.52
2018-02-18T09:36:31.108Z,102249.72
2018-02-18T09:39:01.989Z,102243.33
2018-02-18T09:41:32.479Z,102247.64
2018-02-18T09:44:04.050Z,102252.01
2018-02-18T09:46:45.878Z,102246.98
2018-02-18T09:49:17.205Z,102258.66
2018-02-18T09:51:48.213Z,102249.95
2018-02-18T09:54:18.737Z,102248.31
2018-02-18T09:56:49.183Z,102246.92
2018-02-18T09:59:21.607Z,102252.67
2018-02-18T10:01:52.869Z,102255.82
2018-02-18T10:04:34.770Z,102255.62
2018-02-18T10:07:09.599Z,102247.23
2018-02-18T10:09:48.534Z,102257.81
2018-02-18T10:12:28.757Z,102263.03
2018-02-18T10:15:08.458Z,102260.52
2018-02-18T10:17:47.635Z,102266.69
2018-02-18T10:20:20.293Z,102258.56
2018-02-18T10:22:51.190Z,102264.00
2018-02-18T10:25:22.155Z,102261.23
2018-02-18T10:27:57.317Z,102265.77
2018-02-18T10:30:31.441Z,102259.75
2018-02-18T10:33:02.520Z,102259.97
2018-02-18T10:35:33.517Z,102258.98
2018-02-18T10:38:04.450Z,102262.15
2018-02-18T10:40:34.967Z,102263.38
2018-02-18T10:43:05.752Z,102256.67
2018-02-18T10:45:37.443Z,102253.16
2018-02-18T10:48:07.927Z,102247.23
2018-02-18T10:50:43.520Z,102268.08
2018-02-18T10:53:14.755Z,102266.66
2018-02-18T10:55:46.345Z,102264.95
2018-02-18T10:58:16.723Z,102236.37
2018-02-18T11:00:48.301Z,102259.00
2018-02-18T11:03:19.136Z,102258.05
2018-02-18T11:05:50.206Z,102234.55
2018-02-18T11:08:22.445Z,102256.31
2018-02-18T11:10:53.386Z,102254.33
2018-02-18T11:13:24.808Z,102248.32
2018-02-18T11:15:55.709Z,102244.22
2018-02-18T11:18:26.928Z,102246.21
2018-02-18T11:20:57.658Z,102245.27
2018-02-18T11:23:28.574Z,102239.48
2018-02-18T11:25:59.284Z,102234.59
2018-02-18T11:28:30.107Z,102227.70
2018-02-18T11:31:00.803Z,102233.25
2018-02-18T11:33:31.389Z,102238.06
2018-02-18T11:36:02.019Z,102227.04
2018-02-18T11:38:34.119Z,102228.06
2018-02-18T11:41:04.972Z,102222.41
2018-02-18T11:43:35.389Z,102231.27
2018-02-18T11:46:06.200Z,102230.50
2018-02-18T11:48:37.033Z,102227.39
2018-02-18T11:51:08.769Z,102237.03
2018-02-18T11:53:39.660Z,102220.59
2018-02-18T11:56:10.763Z,102226.37
2018-02-18T11:58:41.698Z,102220.71
2018-02-18T12:01:12.423Z,102214.38
2018-02-18T12:03:50.742Z,102221.28
2018-02-18T12:06:21.253Z,102207.59
2018-02-18T12:08:52.407Z,102202.94
2018-02-18T12:11:22.848Z,102202.23
2018-02-18T12:13:54.615Z,102188.42
2018-02-18T12:16:27.805Z,102195.97
2018-02-18T12:18:58.319Z,102202.24
2018-02-18T12:21:28.937Z,102197.64
2018-02-18T12:23:59.611Z,102187.42
2018-02-18T12:26:35.741Z,102194.39
2018-02-18T12:29:16.119Z,102183.55
2018-02-18T12:31:49.685Z,102179.00
2018-02-18T12:34:22.495Z,102130.11
2018-02-18T12:36:54.387Z,102168.59
2018-02-18T12:39:36.448Z,102169.31
2018-02-18T12:42:19.341Z,102160.45
2018-02-18T12:44:51.367Z,102157.85
2018-02-18T12:47:26.214Z,102159.33
2018-02-18T12:49:56.616Z,102156.58
2018-02-18T12:52:27.729Z,102158.76
2018-02-18T12:54:58.303Z,102155.34
2018-02-18T12:57:28.730Z,102150.33
2018-02-18T13:00:01.149Z,102151.84
2018-02-18T13:02:34.437Z,102148.52
2018-02-18T13:05:05.070Z,102150.77
2018-02-18T13:07:35.748Z,102139.18
2018-02-18T13:10:07.637Z,102140.95
2018-02-18T13:12:38.197Z,102137.69
2018-02-18T13:15:10.052Z,102128.01
2018-02-18T13:17:44.406Z,102126.13
2018-02-18T13:20:14.919Z,102132.44
2018-02-18T13:22:45.363Z,102108.23
2018-02-18T13:25:15.809Z,102120.85
2018-02-18T13:27:46.457Z,102114.03
2018-02-18T13:30:21.061Z,102144.45
2018-02-18T13:32:51.695Z,102116.16
2018-02-18T13:35:22.986Z,102116.61
2018-02-18T13:37:55.062Z,102117.78
2018-02-18T13:40:25.364Z,102111.84
2018-02-18T13:42:56.477Z,102116.70
2018-02-18T13:45:27.117Z,102102.77
2018-02-18T13:47:57.718Z,102109.17
2018-02-18T13:50:29.187Z,102108.27
2018-02-18T13:53:01.170Z,102107.15
2018-02-18T13:55:32.284Z,102104.91
2018-02-18T13:58:04.371Z,102104.21
2018-02-18T14:00:35.168Z,102100.23
2018-02-18T14:03:05.491Z,102100.09
2018-02-18T14:05:36.608Z,102100.95
2018-02-18T14:08:08.888Z,102102.73
2018-02-18T14:10:41.837Z,102103.39
2018-02-18T14:13:12.660Z,102103.84
2018-02-18T14:15:47.154Z,102098.79
2018-02-18T14:18:17.686Z,102101.25
2018-02-18T14:20:53.003Z,102093.25
2018-02-18T14:23:24.104Z,102095.89
2018-02-18T14:26:01.778Z,102090.80
2018-02-18T14:28:32.692Z,102098.58
2018-02-18T14:31:03.613Z,102097.33
2018-02-18T14:33:34.720Z,102079.67
2018-02-18T14:36:08.288Z,102084.61
2018-02-18T14:38:39.747Z,102079.68
2018-02-18T14:41:13.555Z,102079.08
2018-02-18T14:46:02.506Z,102073.83
2018-02-18T14:50:45.098Z,102071.25
2018-02-18T14:55:32.151Z,102064.63
2018-02-18T14:58:02.649Z,102067.11
2018-02-18T15:00:33.710Z,102074.53
2018-02-18T15:03:05.522Z,102072.23
2018-02-18T15:05:37.894Z,102065.75
2018-02-18T15:08:10.563Z,102064.73
2018-02-18T15:10:41.128Z,102070.47
2018-02-18T15:13:12.258Z,102068.23
2018-02-18T15:15:45.298Z,102073.03
2018-02-18T15:18:50.600Z,102071.41
2018-02-18T15:21:56.026Z,102071.48
2018-02-18T15:24:40.298Z,102066.72
2018-02-18T15:30:40.747Z,102056.33
2018-02-18T15:33:14.304Z,102050.94
2018-02-18T15:35:47.330Z,102053.98
2018-02-18T15:38:47.641Z,102061.30
2018-02-18T15:41:21.247Z,102057.78
2018-02-18T15:43:59.634Z,102062.87
2018-02-18T15:46:30.142Z,102057.40
2018-02-18T15:49:01.290Z,102061.16
2018-02-18T15:51:32.474Z,102052.53
2018-02-18T15:54:03.087Z,102055.05
2018-02-18T15:56:35.052Z,102049.00
2018-02-18T15:59:06.483Z,102052.22
2018-02-18T16:01:38.322Z,102050.23
2018-02-18T16:04:08.835Z,102051.25
2018-02-18T16:06:39.945Z,102051.19
2018-02-18T16:09:11.593Z,102054.80
2018-02-18T16:11:44.800Z,102052.88
2018-02-18T16:14:16.569Z,102049.19
2018-02-18T16:16:47.767Z,102030.91
2018-02-18T16:19:20.300Z,102038.28
2018-02-18T16:21:51.424Z,102035.46
2018-02-18T16:24:22.436Z,102039.30
2018-02-18T16:27:04.608Z,102031.72
2018-02-18T16:29:35.188Z,102036.39
2018-02-18T16:32:06.172Z,102035.11
2018-02-18T16:34:42.968Z,102032.61
2018-02-18T16:37:16.406Z,102020.59
2018-02-18T16:39:50.034Z,102017.97
2018-02-18T16:42:24.052Z,102022.86
2018-02-18T16:44:55.046Z,102028.00
2018-02-18T16:47:25.993Z,102032.83
2018-02-18T16:50:02.175Z,102028.17
2018-02-18T16:52:33.038Z,102042.52
2018-02-18T16:55:07.136Z,102036.67
2018-02-18T16:57:38.144Z,102038.61
2018-02-18T17:00:22.442Z,102033.92
2018-02-18T17:02:54.852Z,102031.72
2018-02-18T17:05:30.444Z,102031.89
2018-02-18T17:08:01.577Z,102024.88
2018-02-18T17:10:32.256Z,102027.43
2018-02-18T17:13:03.267Z,102024.30
2018-02-18T17:15:34.694Z,102005.83
2018-02-18T17:18:05.955Z,102024.97
2018-02-18T17:20:39.227Z,102032.97
2018-02-18T17:23:11.616Z,102028.04
2018-02-18T17:25:42.252Z,102031.64
2018-02-18T17:28:13.450Z,102028.83
2018-02-18T17:30:44.833Z,102037.65
2018-02-18T17:33:22.944Z,102019.55
2018-02-18T17:35:54.015Z,102029.61
2018-02-18T17:38:24.779Z,102016.50
2018-02-18T17:40:56.577Z,102025.67
2018-02-18T17:43:28.442Z,102017.47
2018-02-18T17:46:00.070Z,102014.78
2018-02-18T17:48:31.734Z,102011.58
2018-02-18T17:51:04.235Z,102022.22
2018-02-18T17:53:35.356Z,102022.48
2018-02-18T17:56:06.920Z,102022.37
2018-02-18T17:58:40.667Z,102024.59
2018-02-18T18:01:13.908Z,102027.23
2018-02-18T18:03:47.322Z,102029.89
2018-02-18T18:06:22.294Z,102028.33
2018-02-18T18:08:55.810Z,102024.95
2018-02-18T18:11:27.351Z,102021.91
2018-02-18T18:14:00.219Z,102016.73
2018-02-18T18:16:32.089Z,101998.67
2018-02-18T18:19:04.937Z,102024.02
2018-02-18T18:21:35.918Z,102020.77
2018-02-18T18:24:09.814Z,102027.42
2018-02-18T18:26:43.795Z,102024.98
2018-02-18T18:29:17.538Z,102023.54
2018-02-18T18:31:56.335Z,102018.62
2018-02-18T18:34:30.540Z,102023.46
2018-02-18T18:37:02.378Z,102020.92
2018-02-18T18:39:34.892Z,102019.86
2018-02-18T18:42:07.504Z,102017.94
2018-02-18T18:44:40.033Z,102009.03
2018-02-18T18:47:11.994Z,102022.95
2018-02-18T18:49:45.226Z,102016.33
2018-02-18T18:52:17.338Z,102005.30
2018-02-18T18:54:48.364Z,102006.14
2018-02-18T18:57:21.423Z,102008.25
2018-02-18T18:59:59.118Z,102002.92
2018-02-18T19:02:34.741Z,101999.89
2018-02-18T19:05:07.749Z,102006.54
2018-02-18T19:07:41.797Z,102001.95
2018-02-18T19:10:12.839Z,102004.14
2018-02-18T19:12:46.242Z,102011.08
2018-02-18T19:15:22.088Z,102010.11
2018-02-18T19:17:54.053Z,102009.34
2018-02-18T19:20:30.682Z,102009.80
2018-02-18T19:23:04.656Z,102013.37
2018-02-18T19:25:36.011Z,102004.95
2018-02-18T19:28:08.630Z,102007.83
2018-02-18T19:31:03.774Z,102010.09
2018-02-18T19:33:34.482Z,102012.66
2018-02-18T19:36:11.636Z,102016.27
2018-02-18T19:38:42.557Z,102009.72
2018-02-18T19:44:17.399Z,102018.88
2018-02-18T19:46:55.576Z,102012.96
2018-02-18T19:49:27.969Z,102015.91
2018-02-18T19:52:02.183Z,102018.64
2018-02-18T19:54:36.412Z,102007.16
2018-02-18T19:57:08.908Z,102018.99
2018-02-18T19:59:39.724Z,102019.52
2018-02-18T20:02:10.837Z,102023.12
2018-02-18T20:04:42.211Z,102015.12
2018-02-18T20:07:12.966Z,102018.46
2018-02-18T20:09:43.939Z,102016.75
2018-02-18T20:12:15.343Z,102017.73
2018-02-18T20:14:45.896Z,102016.67
2018-02-18T20:17:20.642Z,102009.17
2018-02-18T20:19:52.448Z,102015.36
2018-02-18T20:22:23.524Z,102007.30
2018-02-18T20:24:54.489Z,102010.45
2018-02-18T20:27:26.812Z,102010.17
2018-02-18T20:29:57.143Z,101995.14
2018-02-18T20:32:27.994Z,101981.66
2018-02-18T20:34:59.201Z,101992.63
2018-02-18T20:37:30.299Z,101980.92
2018-02-18T20:40:01.290Z,101985.17
2018-02-18T20:42:31.862Z,101985.86
2018-02-18T20:45:09.996Z,101979.31
2018-02-18T20:47:46.893Z,101976.77
2018-02-18T20:50:17.715Z,101983.04
2018-02-18T20:52:56.350Z,101985.48
2018-02-18T20:55:27.819Z,101988.06
2018-02-18T20:57:59.857Z,101990.08
2018-02-18T21:00:31.777Z,101987.05
2018-02-18T21:03:08.998Z,101983.06
2018-02-18T21:05:42.166Z,101985.30
2018-02-18T21:08:16.994Z,101977.56
2018-02-18T21:10:49.357Z,101970.06
2018-02-18T21:13:28.915Z,101964.80
2018-02-18T21:16:03.928Z,101958.98
2018-02-18T21:18:39.004Z,101960.51
2018-02-18T21:21:28.847Z,101968.75
2018-02-18T21:24:21.100Z,101962.34
2018-02-18T21:26:56.734Z,101960.26
2018-02-18T21:29:27.585Z,101958.30
2018-02-18T21:34:52.421Z,101956.04
2018-02-18T21:37:29.334Z,101952.77
2018-02-18T21:40:04.378Z,101945.89
2018-02-18T21:42:39.049Z,101926.39
2018-02-18T21:48:16.615Z,101909.48
2018-02-18T21:50:48.232Z,101932.23
2018-02-18T21:53:23.022Z,101927.66
2018-02-18T21:56:03.516Z,101926.60
2018-02-18T21:58:39.371Z,101937.52
2018-02-18T22:01:10.512Z,101934.43
2018-02-18T22:03:43.658Z,101939.77
2018-02-18T22:06:22.923Z,101940.83
2018-02-18T22:08:59.028Z,101939.40
2018-02-18T22:11:33.016Z,101937.70
2018-02-18T22:14:09.003Z,101946.58
2018-02-18T22:16:44.348Z,101950.48
2018-02-18T22:19:27.259Z,101950.06
2018-02-18T22:22:15.073Z,101941.02
2018-02-18T22:24:52.076Z,101954.20
2018-02-18T22:27:31.105Z,101948.75
2018-02-18T22:30:18.528Z,101945.38
2018-02-18T22:32:55.220Z,101946.61
2018-02-18T22:35:33.244Z,101942.08
2018-02-18T22:38:07.781Z,101951.09
2018-02-18T22:40:52.008Z,101940.69
2018-02-18T22:43:27.588Z,101942.98
2018-02-18T22:46:00.127Z,101955.00
2018-02-18T22:48:38.118Z,101947.41
2018-02-18T22:51:12.143Z,101945.91
2018-02-18T22:53:45.520Z,101940.14
2018-02-18T22:56:23.146Z,101943.06
2018-02-18T22:58:56.757Z,101941.25
2018-02-18T23:01:30.525Z,101929.47
2018-02-18T23:04:02.092Z,101927.56
2018-02-18T23:06:32.759Z,101927.16
2018-02-18T23:09:10.379Z,101932.34
2018-02-18T23:11:43.110Z,101942.55
2018-02-18T23:14:17.363Z,101937.80
2018-02-18T23:17:04.056Z,101937.42
2018-02-18T23:19:38.716Z,101936.12
2018-02-18T23:22:15.371Z,101935.50
2018-02-18T23:24:50.225Z,101919.36
2018-02-18T23:27:22.955Z,101898.36
2018-02-18T23:29:55.994Z,101914.13
2018-02-18T23:32:27.983Z,101924.29
2018-02-18T23:35:03.872Z,101926.14
2018-02-18T23:37:40.346Z,101919.12
2018-02-18T23:40:12.832Z,101923.56
2018-02-18T23:42:49.170Z,101935.96
2018-02-18T23:45:22.811Z,101932.16
2018-02-18T23:47:56.278Z,101924.19
2018-02-18T23:50:29.128Z,101923.41
2018-02-18T23:53:02.208Z,101924.27
2018-02-18T23:55:33.368Z,101930.83
2018-02-18T23:58:21.312Z,101927.03
